This is the latest recevied weather packets stored in our database for station/object KD2PO-13. If no packets are shown the sender has not sent any weather packets the latest 1 day(s).
| Time | Temp. | Humidity | Pressure | Rain* | Wind** | Luminosity | Snow |
|---|---|---|---|---|---|---|---|
| 1778026177 | 11.67° C | 83% | 0 hPa | 0.51 mm | 4.92 m/s, 345° | - | - |
| 1778025876 | 12.78° C | 85% | 0 hPa | 0.51 mm | 3.58 m/s, 339° | - | - |
| 1778025564 | 13.33° C | 85% | 0 hPa | 0.51 mm | 2.24 m/s, 347° | - | - |
| 1778025264 | 14.44° C | 88% | 0 hPa | 0.76 mm | 3.13 m/s, 10° | - | - |
| 1778024964 | 14.44° C | 89% | 0 hPa | 1.52 mm | 2.68 m/s, 345° | - | - |
| 1778024664 | 14.44° C | 91% | 0 hPa | 1.78 mm | 0.89 m/s, 334° | - | - |
| 1778024364 | 14.44° C | 92% | 0 hPa | 3.3 mm | 1.34 m/s, 350° | - | - |
| 1778024064 | 14.44° C | 92% | 0 hPa | 3.3 mm | 0 m/s | - | - |
| 1778023764 | 15° C | 92% | 0 hPa | 3.3 mm | 1.34 m/s, 25° | - | - |
| 1778023463 | 15° C | 92% | 0 hPa | 3.05 mm | 1.34 m/s, 24° | - | - |
| 1778023163 | 15.56° C | 92% | 0 hPa | 3.3 mm | 0.45 m/s, 19° | - | - |
| 1778022864 | 15.56° C | 93% | 0 hPa | 3.05 mm | 0.45 m/s, 21° | - | - |
| 1778022565 | 15.56° C | 93% | 0 hPa | 3.05 mm | 0.45 m/s, 9° | - | - |
| 1778022264 | 15.56° C | 93% | 0 hPa | 3.05 mm | 0 m/s | - | - |
| 1778021964 | 15.56° C | 92% | 0 hPa | 3.05 mm | 1.79 m/s, 323° | - | - |
| 1778021664 | 16.11° C | 90% | 0 hPa | 2.79 mm | 0 m/s | - | - |
| 1778021364 | 16.11° C | 89% | 0 hPa | 2.03 mm | 0 m/s | - | - |
| 1778021064 | 16.67° C | 87% | 0 hPa | 1.78 mm | 0 m/s | - | - |
| 1778020764 | 17.22° C | 85% | 0 hPa | 0.25 mm | 1.34 m/s, 142° | - | - |
| 1778020464 | 17.22° C | 83% | 0 hPa | 0.25 mm | 0 m/s | - | - |
| 1778020163 | 17.78° C | 81% | 0 hPa | 0.25 mm | 0 m/s | - | - |
| 1778019863 | 18.33° C | 77% | 0 hPa | 0.25 mm | 0 m/s | - | - |
| 1778019563 | 18.33° C | 73% | 0 hPa | 0 mm | 0 m/s | - | - |
| 1778019263 | 18.89° C | 72% | 0 hPa | 0 mm | 0 m/s | - | - |
| 1778018964 | 18.89° C | 71% | 0 hPa | 0 mm | 0 m/s | - | - |
* Rain latest hour (hover to see other rain measurements)
** Current wind speed in m/s (hover to see current wind gust speed)